Time;durP1;ratioP1;P1;durP2;ratioP2;P2;SDS_P1;SDS_P2;PMS_P1;PMS_P2;Temp;Humidity;BMP_temperature;BMP_pressure;BME280_temperature;BME280_humidity;BME280_pressure;Samples;Min_cycle;Max_cycle;Signal;HPM_P1;HPM_P2
2021/03/24 00:00:49;;;;;;;67.78;37.33;;;7.50;99.90;;;;;;4968080;28;20032;-73
2021/03/24 00:03:16;;;;;;;70.65;39.03;;;7.40;99.90;;;;;;4966346;28;20030;-73
2021/03/24 00:05:49;;;;;;;67.57;40.45;;;7.40;99.90;;;;;;4965369;28;21662;-73
2021/03/24 00:08:15;;;;;;;73.70;40.45;;;7.40;99.90;;;;;;4970929;28;20097;-73
2021/03/24 00:10:41;;;;;;;70.00;40.78;;;7.50;99.90;;;;;;4964771;28;20502;-74
2021/03/24 00:13:07;;;;;;;68.50;39.70;;;7.50;99.90;;;;;;4964089;28;20031;-73
2021/03/24 00:15:34;;;;;;;70.18;42.13;;;7.40;99.90;;;;;;4971829;28;20030;-73
2021/03/24 00:18:00;;;;;;;66.85;41.83;;;7.30;99.90;;;;;;4951382;28;20502;-74
2021/03/24 00:20:29;;;;;;;67.68;40.63;;;7.30;99.90;;;;;;4966486;28;20030;-74
2021/03/24 00:22:55;;;;;;;73.28;38.17;;;7.20;99.90;;;;;;4964393;28;20500;-74
2021/03/24 00:25:21;;;;;;;72.95;40.22;;;7.20;99.90;;;;;;4967826;28;20062;-74
2021/03/24 00:27:49;;;;;;;71.70;42.08;;;7.20;99.90;;;;;;4959591;28;20071;-74
2021/03/24 00:30:19;;;;;;;61.88;37.72;;;7.10;99.90;;;;;;4953382;28;20074;-74
2021/03/24 00:32:46;;;;;;;66.82;39.75;;;7.10;99.90;;;;;;4963094;28;20046;-74
2021/03/24 00:35:12;;;;;;;70.88;38.47;;;7.20;99.90;;;;;;4958981;28;20502;-74
2021/03/24 00:37:39;;;;;;;79.22;40.80;;;7.20;99.90;;;;;;4956635;28;20488;-73
2021/03/24 00:40:20;;;;;;;71.55;39.05;;;7.20;99.90;;;;;;4957854;28;20053;-74
2021/03/24 00:42:45;;;;;;;75.53;40.38;;;7.20;99.90;;;;;;4962657;28;20058;-73
2021/03/24 00:45:13;;;;;;;67.05;40.33;;;7.20;99.90;;;;;;4963558;28;20066;-73
2021/03/24 00:47:39;;;;;;;67.97;39.70;;;7.20;99.90;;;;;;4952672;28;20043;-73
2021/03/24 00:50:06;;;;;;;75.20;40.70;;;7.20;99.90;;;;;;4969857;28;20030;-73
2021/03/24 00:52:32;;;;;;;67.28;40.33;;;7.10;99.90;;;;;;4966744;28;20027;-73
2021/03/24 00:54:57;;;;;;;76.68;42.35;;;7.00;99.90;;;;;;4952226;28;20399;-74
2021/03/24 00:57:23;;;;;;;69.03;40.65;;;7.00;99.90;;;;;;4962848;28;20462;-73
2021/03/24 00:59:49;;;;;;;62.60;36.60;;;7.00;99.90;;;;;;4959099;28;20034;-73
2021/03/24 01:02:14;;;;;;;68.25;39.97;;;6.80;99.90;;;;;;4961509;28;20023;-73
2021/03/24 01:04:42;;;;;;;66.00;39.05;;;6.80;99.90;;;;;;4962525;28;20031;-73
2021/03/24 01:07:10;;;;;;;68.22;41.55;;;6.70;99.90;;;;;;4960153;28;20105;-73
2021/03/24 01:09:36;;;;;;;67.80;40.65;;;6.70;99.90;;;;;;4959011;28;20019;-74
2021/03/24 01:12:02;;;;;;;67.03;39.17;;;6.60;99.90;;;;;;4962616;28;20058;-73
2021/03/24 01:14:28;;;;;;;72.53;40.53;;;6.60;99.90;;;;;;4966369;28;20074;-73
2021/03/24 01:16:54;;;;;;;68.53;38.03;;;6.60;99.90;;;;;;4967242;28;20058;-73
2021/03/24 01:19:20;;;;;;;64.57;37.10;;;6.60;99.90;;;;;;4959240;28;20183;-74
2021/03/24 01:21:45;;;;;;;61.25;35.92;;;6.70;99.90;;;;;;4951807;28;20078;-73
2021/03/24 01:24:11;;;;;;;70.40;38.33;;;6.60;99.90;;;;;;4968188;28;20491;-73
2021/03/24 01:26:36;;;;;;;66.25;38.00;;;6.50;99.90;;;;;;4972833;28;20034;-74
2021/03/24 01:29:02;;;;;;;61.60;37.22;;;6.40;99.90;;;;;;4969648;28;20034;-73
2021/03/24 01:31:29;;;;;;;69.53;39.83;;;6.30;99.90;;;;;;4966425;28;20094;-72
2021/03/24 01:33:56;;;;;;;64.45;36.75;;;6.30;99.90;;;;;;4959107;28;20430;-74
2021/03/24 01:36:22;;;;;;;69.25;38.42;;;6.40;99.90;;;;;;4964801;28;20019;-72
2021/03/24 01:38:49;;;;;;;62.70;36.47;;;6.40;99.90;;;;;;4963403;28;20101;-74
2021/03/24 01:41:15;;;;;;;65.68;37.58;;;6.50;99.90;;;;;;4959673;28;20037;-74
2021/03/24 01:43:42;;;;;;;72.15;39.20;;;6.50;99.90;;;;;;4940992;28;20049;-74
2021/03/24 01:46:20;;;;;;;69.35;40.05;;;6.50;99.90;;;;;;4961269;28;20090;-73
2021/03/24 01:48:56;;;;;;;69.65;37.03;;;6.50;99.90;;;;;;4952525;28;20484;-73
2021/03/24 01:51:27;;;;;;;69.05;36.70;;;6.50;99.90;;;;;;4962465;28;20031;-73
2021/03/24 01:53:55;;;;;;;67.32;36.85;;;6.30;99.90;;;;;;4963767;28;20047;-73
2021/03/24 01:56:22;;;;;;;61.33;35.75;;;6.30;99.90;;;;;;4966419;28;20026;-73
2021/03/24 01:58:48;;;;;;;68.03;37.25;;;6.30;99.90;;;;;;4959490;28;20031;-74
2021/03/24 02:01:21;;;;;;;65.32;35.47;;;6.30;99.90;;;;;;4966316;28;20565;-73
2021/03/24 02:03:46;;;;;;;;;;;6.20;99.90;;;;;;4963292;28;20032;-74
2021/03/24 02:06:23;;;;;;;60.47;34.00;;;6.20;99.90;;;;;;4956306;28;20370;-72
2021/03/24 02:09:05;;;;;;;63.97;34.97;;;6.30;99.90;;;;;;4964671;28;20030;-72
2021/03/24 02:12:12;;;;;;;63.65;34.47;;;6.30;99.90;;;;;;4953774;28;20038;-74
2021/03/24 02:14:56;;;;;;;60.95;33.78;;;6.20;99.90;;;;;;4957361;28;20047;-71
2021/03/24 02:17:26;;;;;;;63.33;35.70;;;6.10;99.90;;;;;;4968407;28;20019;-72
2021/03/24 02:20:18;;;;;;;68.28;36.08;;;6.10;99.90;;;;;;4962810;28;20026;-72
2021/03/24 02:22:48;;;;;;;63.20;36.17;;;6.00;99.90;;;;;;4965999;28;20023;-74
2021/03/24 02:25:25;;;;;;;71.82;36.00;;;6.10;99.90;;;;;;4961158;28;20015;-74
2021/03/24 02:27:57;;;;;;;75.43;40.10;;;6.00;99.90;;;;;;4968237;28;20111;-74
2021/03/24 02:30:45;;;;;;;74.05;37.13;;;6.00;99.90;;;;;;4965460;28;20022;-75
2021/03/24 02:33:14;;;;;;;66.25;35.55;;;5.90;99.90;;;;;;4965295;28;20035;-74
2021/03/24 02:35:48;;;;;;;81.07;40.88;;;5.70;99.90;;;;;;4967581;28;20042;-74
2021/03/24 02:38:16;;;;;;;70.22;39.08;;;5.70;99.90;;;;;;4967139;28;20023;-74
2021/03/24 02:40:44;;;;;;;78.93;40.22;;;5.70;99.90;;;;;;4953048;28;20510;-74
2021/03/24 02:43:11;;;;;;;71.97;37.78;;;5.60;99.90;;;;;;4968498;28;20031;-74
2021/03/24 02:45:43;;;;;;;65.40;34.95;;;5.70;99.90;;;;;;4963076;28;20019;-74
2021/03/24 02:48:12;;;;;;;72.53;36.47;;;5.60;99.90;;;;;;4959117;28;20031;-74
2021/03/24 02:50:40;;;;;;;65.75;35.00;;;5.60;99.90;;;;;;4962591;28;20090;-73
2021/03/24 02:53:07;;;;;;;76.80;35.17;;;5.60;99.90;;;;;;4947633;28;20038;-74
2021/03/24 02:55:34;;;;;;;70.88;37.33;;;5.70;99.90;;;;;;4969757;28;20053;-74
2021/03/24 02:58:00;;;;;;;74.93;38.33;;;5.70;99.90;;;;;;4966559;28;20031;-74
2021/03/24 03:00:26;;;;;;;64.00;34.45;;;5.70;99.90;;;;;;4966703;28;20081;-74
2021/03/24 03:02:59;;;;;;;73.03;36.50;;;5.60;99.90;;;;;;4960414;28;20479;-74
2021/03/24 03:05:33;;;;;;;65.43;33.58;;;5.60;99.90;;;;;;4968893;28;20028;-73
2021/03/24 03:08:06;;;;;;;65.50;34.75;;;5.70;99.90;;;;;;4959143;28;20081;-74
2021/03/24 03:10:56;;;;;;;72.18;36.72;;;5.70;99.90;;;;;;4966284;28;20066;-73
2021/03/24 03:13:28;;;;;;;73.93;38.78;;;5.60;99.90;;;;;;4959846;28;20041;-73
2021/03/24 03:16:03;;;;;;;68.13;35.45;;;5.60;99.90;;;;;;4960907;28;20027;-73
2021/03/24 03:18:42;;;;;;;69.90;35.22;;;5.60;99.90;;;;;;4962564;28;20029;-75
2021/03/24 03:21:15;;;;;;;77.95;36.08;;;5.60;99.90;;;;;;4967336;28;20023;-74
2021/03/24 03:23:43;;;;;;;70.35;35.75;;;5.70;99.90;;;;;;4963775;28;20031;-74
2021/03/24 03:26:14;;;;;;;89.90;42.03;;;5.80;99.90;;;;;;4963991;28;20019;-74
2021/03/24 03:28:43;;;;;;;81.15;39.83;;;5.80;99.90;;;;;;4965813;28;20031;-73
2021/03/24 03:31:17;;;;;;;76.80;38.38;;;5.90;99.90;;;;;;4962000;28;20023;-74
2021/03/24 03:33:50;;;;;;;61.92;33.47;;;5.80;99.90;;;;;;4961899;28;20094;-74
2021/03/24 03:36:16;;;;;;;63.00;33.38;;;5.80;99.90;;;;;;4952106;28;20023;-74
2021/03/24 03:38:44;;;;;;;70.20;35.42;;;5.70;99.90;;;;;;4962531;28;20506;-74
2021/03/24 03:41:13;;;;;;;69.55;35.72;;;5.70;99.90;;;;;;4954125;28;20081;-73
2021/03/24 03:43:45;;;;;;;71.57;35.00;;;5.50;99.90;;;;;;4961276;28;20395;-74
2021/03/24 03:46:14;;;;;;;72.50;36.45;;;5.60;99.90;;;;;;4971362;28;20031;-74
2021/03/24 03:48:42;;;;;;;72.57;35.95;;;5.60;99.90;;;;;;4952300;28;20069;-74
2021/03/24 03:51:13;;;;;;;76.00;38.17;;;5.60;99.90;;;;;;4969785;28;20027;-74
2021/03/24 03:53:59;;;;;;;85.88;39.45;;;5.50;99.90;;;;;;4969319;28;20030;-73
2021/03/24 03:56:44;;;;;;;83.18;40.72;;;5.40;99.90;;;;;;4960629;28;20580;-73
2021/03/24 03:59:45;;;;;;;71.32;37.75;;;5.50;99.90;;;;;;4922993;28;20122;-74
2021/03/24 04:02:17;;;;;;;77.63;36.83;;;5.50;99.90;;;;;;4958197;28;20130;-73
2021/03/24 04:04:56;;;;;;;73.65;36.47;;;5.40;99.90;;;;;;4959880;28;20023;-74
2021/03/24 04:07:36;;;;;;;73.68;36.05;;;5.40;99.90;;;;;;4966208;28;20035;-73
2021/03/24 04:10:04;;;;;;;66.65;33.72;;;5.40;99.90;;;;;;4968128;28;20041;-73
2021/03/24 04:12:33;;;;;;;65.65;35.63;;;5.40;99.90;;;;;;4947816;28;20035;-74
2021/03/24 04:15:01;;;;;;;68.68;36.70;;;5.40;99.90;;;;;;4962803;28;20386;-74
2021/03/24 04:17:35;;;;;;;81.47;37.90;;;5.30;99.90;;;;;;4966587;28;20035;-74
2021/03/24 04:20:03;;;;;;;77.28;38.38;;;5.30;99.90;;;;;;4965877;28;20030;-74
2021/03/24 04:22:32;;;;;;;95.45;43.85;;;5.40;99.90;;;;;;4961822;28;20511;-74
2021/03/24 04:24:59;;;;;;;86.57;41.80;;;5.30;99.90;;;;;;4959055;28;20027;-75
2021/03/24 04:27:29;;;;;;;90.50;42.97;;;5.30;99.90;;;;;;4958848;28;20027;-74
2021/03/24 04:30:00;;;;;;;84.43;41.88;;;5.30;99.90;;;;;;4965465;28;20054;-75
2021/03/24 04:32:26;;;;;;;84.10;40.90;;;5.40;99.90;;;;;;4965410;28;20511;-73
2021/03/24 04:34:52;;;;;;;83.55;38.97;;;5.30;99.90;;;;;;4960901;28;20035;-74
2021/03/24 04:37:34;;;;;;;81.57;41.03;;;5.20;99.90;;;;;;4964492;28;20469;-74
2021/03/24 04:40:17;;;;;;;82.32;39.15;;;5.30;99.90;;;;;;4940833;28;20038;-74
2021/03/24 04:42:46;;;;;;;;;;;5.30;99.90;;;;;;4962968;28;20411;-72
2021/03/24 04:45:35;;;;;;;87.70;38.00;;;5.30;99.90;;;;;;4960994;28;19914;-74
2021/03/24 04:48:04;;;;;;;85.93;40.50;;;5.30;99.90;;;;;;4966195;28;20046;-74
2021/03/24 04:50:35;;;;;;;88.55;40.80;;;5.20;99.90;;;;;;4967264;28;20365;-73
2021/03/24 04:53:04;;;;;;;97.40;41.38;;;5.10;99.90;;;;;;4959129;28;20108;-75
2021/03/24 04:55:31;;;;;;;83.65;40.13;;;5.10;99.90;;;;;;4969324;28;20031;-74
2021/03/24 04:58:01;;;;;;;86.47;40.17;;;5.10;99.90;;;;;;4966806;28;20479;-75
2021/03/24 05:00:48;;;;;;;82.65;38.63;;;5.20;99.90;;;;;;4966731;28;20023;-75
2021/03/24 05:03:17;;;;;;;89.20;39.75;;;5.10;99.90;;;;;;4966168;28;20033;-73
2021/03/24 05:05:56;;;;;;;79.28;37.70;;;5.10;99.90;;;;;;4958582;28;20114;-74
2021/03/24 05:08:41;;;;;;;89.68;41.33;;;5.10;99.90;;;;;;4968017;28;20042;-73
2021/03/24 05:11:14;;;;;;;81.60;39.78;;;5.00;99.90;;;;;;4959183;28;20031;-73
2021/03/24 05:13:45;;;;;;;71.50;34.70;;;5.00;99.90;;;;;;4958344;28;20041;-74
2021/03/24 05:16:33;;;;;;;82.80;37.85;;;5.00;99.90;;;;;;4960952;28;20023;-74
2021/03/24 05:19:00;;;;;;;85.35;38.25;;;5.10;99.90;;;;;;4964423;28;20057;-74
2021/03/24 05:21:36;;;;;;;81.70;37.80;;;5.10;99.90;;;;;;4963591;28;20081;-73
2021/03/24 05:24:05;;;;;;;80.95;38.97;;;5.10;99.90;;;;;;4971020;28;20026;-72
2021/03/24 05:26:35;;;;;;;83.05;37.17;;;5.10;99.90;;;;;;4965979;28;20483;-75
2021/03/24 05:29:05;;;;;;;82.25;40.58;;;5.10;99.90;;;;;;4966335;28;20461;-74
2021/03/24 05:31:40;;;;;;;87.38;40.70;;;5.10;99.90;;;;;;4949973;28;20081;-74
2021/03/24 05:34:13;;;;;;;88.40;41.60;;;5.10;99.90;;;;;;4947658;28;20034;-73
2021/03/24 05:36:47;;;;;;;89.40;41.65;;;5.00;99.90;;;;;;4965480;28;20055;-71
2021/03/24 05:39:30;;;;;;;93.88;41.08;;;5.00;99.90;;;;;;4956990;28;20114;-70
2021/03/24 05:42:05;;;;;;;;;;;4.90;99.90;;;;;;4964279;28;20032;-73
2021/03/24 05:44:33;;;;;;;100.47;42.65;;;4.90;99.90;;;;;;4963215;28;20000;-72
2021/03/24 05:47:21;;;;;;;98.15;43.65;;;5.00;99.90;;;;;;4967472;28;20026;-72
2021/03/24 05:50:26;;;;;;;91.43;41.78;;;5.00;99.90;;;;;;4961396;28;20491;-73
2021/03/24 05:53:04;;;;;;;83.70;38.47;;;5.00;99.90;;;;;;4960134;28;20031;-73
2021/03/24 05:55:39;;;;;;;105.68;44.97;;;5.10;99.90;;;;;;4965061;28;20038;-73
2021/03/24 05:58:55;;;;;;;84.72;39.95;;;5.10;99.90;;;;;;4965076;28;20027;-73
2021/03/24 06:01:28;;;;;;;95.47;42.55;;;5.10;99.90;;;;;;4920791;28;20503;-73
2021/03/24 06:04:25;;;;;;;90.22;40.10;;;5.20;99.90;;;;;;4966279;28;20054;-73
2021/03/24 06:07:21;;;;;;;91.57;40.85;;;5.30;99.90;;;;;;4936080;28;20081;-73
2021/03/24 06:09:55;;;;;;;89.93;38.95;;;5.30;99.90;;;;;;4958445;28;20024;-73
2021/03/24 06:12:52;;;;;;;85.25;39.45;;;5.40;99.90;;;;;;4959765;28;20045;-73
2021/03/24 06:15:49;;;;;;;87.80;39.72;;;5.40;99.90;;;;;;4963112;28;20042;-74
2021/03/24 06:18:33;;;;;;;91.78;40.13;;;5.40;99.90;;;;;;4968592;28;20035;-73
2021/03/24 06:21:36;;;;;;;90.55;41.63;;;5.40;99.90;;;;;;4962667;28;20077;-73
2021/03/24 06:24:26;;;;;;;90.95;41.35;;;5.40;99.90;;;;;;4966023;28;20456;-73
2021/03/24 06:26:57;;;;;;;95.80;41.58;;;5.50;99.90;;;;;;4964014;28;20035;-74
2021/03/24 06:29:48;;;;;;;92.47;40.50;;;5.40;99.90;;;;;;4961267;28;20033;-73
2021/03/24 06:32:33;;;;;;;93.47;40.63;;;5.40;99.90;;;;;;4964864;28;20038;-72
2021/03/24 06:35:08;;;;;;;97.43;42.60;;;5.50;99.90;;;;;;4955842;28;20035;-73
2021/03/24 06:38:01;;;;;;;105.70;44.65;;;5.60;99.90;;;;;;4967489;28;20027;-74
2021/03/24 06:40:39;;;;;;;103.78;47.08;;;5.60;99.90;;;;;;4954227;28;20384;-74
2021/03/24 06:43:48;;;;;;;110.85;49.40;;;5.70;99.90;;;;;;4968519;28;20027;-74
2021/03/24 06:46:28;;;;;;;92.90;42.20;;;5.70;99.90;;;;;;4968798;28;20035;-74
2021/03/24 06:49:07;;;;;;;95.80;41.90;;;5.90;99.90;;;;;;4966367;28;20026;-74
2021/03/24 06:52:10;;;;;;;96.15;45.42;;;5.90;99.90;;;;;;4966670;28;20023;-74
2021/03/24 06:54:45;;;;;;;97.63;43.03;;;6.10;99.90;;;;;;4968730;28;20051;-75
2021/03/24 06:57:59;;;;;;;105.57;46.33;;;6.20;99.90;;;;;;4938771;28;20551;-74
2021/03/24 07:01:04;;;;;;;94.10;44.25;;;6.20;99.90;;;;;;4948192;28;20049;-75
2021/03/24 07:04:20;;;;;;;90.85;40.95;;;6.30;99.90;;;;;;4965840;28;20079;-74
2021/03/24 07:07:12;;;;;;;94.85;43.85;;;6.40;99.90;;;;;;4948417;28;20042;-74
2021/03/24 07:10:04;;;;;;;88.75;40.75;;;6.50;99.90;;;;;;4970370;28;20368;-73
2021/03/24 07:12:54;;;;;;;87.20;39.65;;;6.50;99.90;;;;;;4967857;28;20523;-74
2021/03/24 07:15:44;;;;;;;93.28;42.05;;;6.60;99.90;;;;;;4962475;28;20074;-73
2021/03/24 07:18:48;;;;;;;86.70;41.47;;;6.60;99.90;;;;;;4959436;28;20019;-72
2021/03/24 07:21:20;;;;;;;95.63;44.10;;;6.70;99.90;;;;;;4960411;28;20047;-71
2021/03/24 07:24:21;;;;;;;91.43;40.97;;;6.80;99.90;;;;;;4962115;28;20086;-73
2021/03/24 07:26:53;;;;;;;91.20;40.38;;;6.70;99.90;;;;;;4963275;28;20019;-73
2021/03/24 07:29:49;;;;;;;96.40;42.15;;;6.90;99.90;;;;;;4970659;28;20031;-72
2021/03/24 07:32:33;;;;;;;88.20;38.78;;;7.00;99.90;;;;;;4961663;28;20030;-73
2021/03/24 07:35:10;;;;;;;89.53;41.03;;;6.90;99.90;;;;;;4958331;28;20047;-72
2021/03/24 07:37:42;;;;;;;87.70;40.03;;;7.10;99.90;;;;;;4962497;28;20031;-73
2021/03/24 07:40:29;;;;;;;88.25;40.97;;;7.10;99.90;;;;;;4965205;28;20038;-73
2021/03/24 07:43:25;;;;;;;94.82;42.20;;;7.20;99.90;;;;;;4960144;28;20027;-73
2021/03/24 07:46:26;;;;;;;83.32;40.90;;;7.30;99.90;;;;;;4956881;28;20123;-71
2021/03/24 07:49:13;;;;;;;88.28;40.75;;;7.50;99.90;;;;;;4969671;28;20081;-71
2021/03/24 07:52:10;;;;;;;86.25;40.17;;;7.70;99.90;;;;;;4959477;28;20471;-72
2021/03/24 07:54:58;;;;;;;82.03;38.88;;;7.90;99.90;;;;;;4965914;28;20130;-72
2021/03/24 07:57:42;;;;;;;82.28;38.90;;;8.10;99.90;;;;;;4957443;28;20082;-72
2021/03/24 08:00:23;;;;;;;85.50;39.63;;;8.20;99.90;;;;;;4964071;28;20055;-72
2021/03/24 08:02:51;;;;;;;94.07;40.97;;;8.40;99.90;;;;;;4962503;28;20069;-72
2021/03/24 08:05:24;;;;;;;83.95;40.65;;;8.50;99.90;;;;;;4960992;28;20062;-71
2021/03/24 08:08:13;;;;;;;82.55;43.00;;;8.70;99.90;;;;;;4965341;28;20442;-71
2021/03/24 08:10:50;;;;;;;79.28;39.90;;;8.90;99.90;;;;;;4967887;28;20082;-72
2021/03/24 08:13:22;;;;;;;78.10;38.78;;;9.00;99.90;;;;;;4959080;28;20027;-72
2021/03/24 08:16:07;;;;;;;72.65;35.53;;;9.10;99.90;;;;;;4964512;28;20027;-71
2021/03/24 08:18:58;;;;;;;80.93;36.40;;;9.20;99.90;;;;;;4963640;28;20483;-71
2021/03/24 08:21:34;;;;;;;75.18;38.30;;;9.30;99.90;;;;;;4968823;28;20157;-71
2021/03/24 08:24:30;;;;;;;72.35;36.45;;;9.40;99.90;;;;;;4963046;28;20034;-71
2021/03/24 08:27:03;;;;;;;75.03;35.80;;;9.60;99.90;;;;;;4967124;28;20027;-72
2021/03/24 08:30:10;;;;;;;76.50;36.45;;;9.80;99.90;;;;;;4962963;28;20030;-72
2021/03/24 08:32:47;;;;;;;76.40;36.60;;;10.00;99.90;;;;;;4929676;28;20035;-71
2021/03/24 08:35:39;;;;;;;67.68;33.97;;;10.10;99.90;;;;;;4960815;28;20047;-71
2021/03/24 08:38:28;;;;;;;72.80;35.33;;;10.30;99.90;;;;;;4964262;28;20039;-71
2021/03/24 08:41:32;;;;;;;69.00;35.30;;;10.50;99.90;;;;;;4966143;28;20050;-72
2021/03/24 08:44:01;;;;;;;72.50;34.67;;;10.70;99.90;;;;;;4919338;28;20539;-71
2021/03/24 08:46:52;;;;;;;74.95;35.20;;;10.70;99.90;;;;;;4963871;28;20535;-71
2021/03/24 08:49:21;;;;;;;76.55;35.20;;;10.90;99.90;;;;;;4959823;28;20039;-71
2021/03/24 08:51:54;;;;;;;73.63;35.22;;;10.90;99.90;;;;;;4963996;28;20051;-71
2021/03/24 08:54:41;;;;;;;69.88;34.65;;;11.00;99.90;;;;;;4968508;28;20043;-71
2021/03/24 08:57:23;;;;;;;73.97;36.40;;;11.20;99.90;;;;;;4959170;28;20033;-72
2021/03/24 08:59:57;;;;;;;69.37;35.63;;;11.40;99.90;;;;;;4966570;28;20022;-71
2021/03/24 09:02:38;;;;;;;68.65;35.90;;;11.50;99.90;;;;;;4961066;28;20023;-71
2021/03/24 09:05:12;;;;;;;73.88;36.55;;;11.60;99.90;;;;;;4963341;28;20034;-70
2021/03/24 09:07:45;;;;;;;75.47;38.72;;;11.70;99.90;;;;;;4965560;28;20045;-71
2021/03/24 09:10:42;;;;;;;72.75;36.80;;;11.70;99.90;;;;;;4962883;28;20030;-72
2021/03/24 09:13:37;;;;;;;64.20;34.42;;;11.80;99.90;;;;;;4962446;28;20031;-72
2021/03/24 09:16:32;;;;;;;70.43;35.45;;;12.00;99.90;;;;;;4948007;28;20053;-71
2021/03/24 09:19:17;;;;;;;72.90;37.75;;;12.20;99.90;;;;;;4953428;28;20031;-73
2021/03/24 09:22:13;;;;;;;70.25;35.42;;;12.30;99.90;;;;;;4954516;28;20635;-73
2021/03/24 09:24:57;;;;;;;67.65;34.70;;;12.40;99.90;;;;;;4966015;28;20027;-73
2021/03/24 09:27:35;;;;;;;67.82;35.03;;;12.60;99.90;;;;;;4960573;28;20038;-73
2021/03/24 09:30:22;;;;;;;73.38;34.55;;;12.70;99.90;;;;;;4950058;28;20023;-73
2021/03/24 09:32:58;;;;;;;72.30;34.30;;;12.90;99.90;;;;;;4961767;28;20098;-73
2021/03/24 09:35:52;;;;;;;67.22;33.30;;;12.90;99.90;;;;;;4962729;28;20101;-73
2021/03/24 09:38:20;;;;;;;64.57;32.50;;;13.20;99.90;;;;;;4938961;28;20451;-74
2021/03/24 09:40:51;;;;;;;58.28;28.10;;;13.20;99.90;;;;;;4966443;28;20082;-73
2021/03/24 09:43:23;;;;;;;72.90;33.22;;;13.30;99.90;;;;;;4961137;28;20031;-73
2021/03/24 09:46:03;;;;;;;65.82;30.30;;;13.50;99.90;;;;;;4949789;28;20086;-72
2021/03/24 09:48:40;;;;;;;61.72;31.55;;;13.60;99.90;;;;;;4961378;28;20499;-72
2021/03/24 09:51:11;;;;;;;67.70;32.13;;;13.70;99.90;;;;;;4960963;28;20031;-72
2021/03/24 09:53:40;;;;;;;66.13;32.47;;;13.80;99.90;;;;;;4963032;28;20038;-72
2021/03/24 09:56:22;;;;;;;64.10;33.38;;;13.80;99.90;;;;;;4957117;28;20035;-73
2021/03/24 09:59:00;;;;;;;63.22;32.28;;;14.00;99.90;;;;;;4959086;28;20042;-73
2021/03/24 10:01:35;;;;;;;66.55;34.53;;;14.00;99.90;;;;;;4962099;28;20415;-73
2021/03/24 10:04:38;;;;;;;63.03;30.15;;;14.10;99.90;;;;;;4964990;28;20089;-73
2021/03/24 10:07:25;;;;;;;57.58;30.65;;;14.20;99.90;;;;;;4938506;28;20032;-73
2021/03/24 10:10:13;;;;;;;59.47;30.65;;;14.40;99.90;;;;;;4964962;28;20026;-73
2021/03/24 10:12:44;;;;;;;61.33;32.78;;;14.40;99.90;;;;;;4961698;28;20040;-73
2021/03/24 10:15:21;;;;;;;63.20;32.15;;;14.50;99.90;;;;;;4966438;28;20038;-72
2021/03/24 10:17:47;;;;;;;61.67;33.03;;;14.70;99.90;;;;;;4963530;28;20018;-72
2021/03/24 10:20:34;;;;;;;59.22;28.98;;;14.80;99.90;;;;;;4970087;28;20027;-72
2021/03/24 10:23:34;;;;;;;58.10;31.27;;;14.90;99.90;;;;;;4965522;28;20031;-72
2021/03/24 10:26:12;;;;;;;64.72;30.83;;;15.00;99.90;;;;;;4958007;28;20118;-72
2021/03/24 10:28:52;;;;;;;63.30;31.17;;;15.10;99.90;;;;;;4966803;28;20039;-72
2021/03/24 10:31:30;;;;;;;60.13;33.55;;;15.20;99.90;;;;;;4957185;28;20031;-73
2021/03/24 10:34:09;;;;;;;55.97;30.73;;;15.40;99.90;;;;;;4964343;28;20070;-73
2021/03/24 10:36:41;;;;;;;51.90;29.98;;;15.40;99.90;;;;;;4961665;28;20061;-73
2021/03/24 10:39:22;;;;;;;51.22;28.10;;;15.40;99.90;;;;;;4965242;28;20026;-73
2021/03/24 10:42:03;;;;;;;49.65;27.40;;;15.60;99.90;;;;;;4965737;28;20031;-73
2021/03/24 10:44:45;;;;;;;52.03;28.08;;;15.60;99.90;;;;;;4964339;28;20496;-73
2021/03/24 10:47:32;;;;;;;55.22;27.05;;;15.70;99.90;;;;;;4960360;28;20019;-73
2021/03/24 10:50:19;;;;;;;48.40;26.95;;;15.80;99.90;;;;;;4963831;28;20023;-72
2021/03/24 10:53:12;;;;;;;43.88;23.63;;;15.80;99.90;;;;;;4958648;28;20034;-73
2021/03/24 10:55:42;;;;;;;44.58;25.15;;;16.00;99.90;;;;;;4952261;28;20039;-73
2021/03/24 10:58:24;;;;;;;44.58;24.45;;;16.10;99.90;;;;;;4965851;28;20023;-73
2021/03/24 11:01:00;;;;;;;44.72;25.10;;;16.20;99.90;;;;;;4963814;28;20023;-73
2021/03/24 11:03:48;;;;;;;49.65;25.58;;;16.30;99.90;;;;;;4947869;28;20449;-73
2021/03/24 11:06:23;;;;;;;46.65;25.48;;;16.40;99.90;;;;;;4959747;28;20071;-73
2021/03/24 11:09:09;;;;;;;46.65;24.80;;;16.40;99.90;;;;;;4960191;28;20026;-74
2021/03/24 11:12:00;;;;;;;43.72;23.42;;;16.30;99.90;;;;;;4961460;28;20114;-73
2021/03/24 11:14:35;;;;;;;40.75;21.90;;;16.50;99.90;;;;;;4965666;28;20062;-73
2021/03/24 11:17:03;;;;;;;37.22;22.02;;;16.60;99.90;;;;;;4944021;28;20154;-73
2021/03/24 11:19:43;;;;;;;42.50;22.83;;;16.50;99.90;;;;;;4939345;28;20031;-73
2021/03/24 11:22:28;;;;;;;39.17;22.27;;;16.60;99.90;;;;;;4963725;28;20053;-73
2021/03/24 11:25:17;;;;;;;42.10;22.63;;;16.80;99.90;;;;;;4964289;28;20027;-73
2021/03/24 11:27:55;;;;;;;38.95;21.42;;;16.90;99.90;;;;;;4966290;28;20031;-73
2021/03/24 11:30:45;;;;;;;37.22;21.63;;;16.70;99.90;;;;;;4963900;28;20566;-73
2021/03/24 11:33:36;;;;;;;41.13;22.88;;;16.80;99.90;;;;;;4960246;28;20566;-73
2021/03/24 11:36:18;;;;;;;43.20;22.67;;;16.90;99.90;;;;;;4944122;29;20038;-73
2021/03/24 11:39:05;;;;;;;40.85;23.25;;;16.90;99.90;;;;;;4968937;28;20039;-73
2021/03/24 11:41:36;;;;;;;42.90;23.80;;;17.10;99.90;;;;;;4963525;28;20042;-73
2021/03/24 11:44:10;;;;;;;44.65;24.15;;;17.20;99.90;;;;;;4957598;28;20042;-72
2021/03/24 11:47:09;;;;;;;38.92;22.50;;;17.10;99.90;;;;;;4942972;28;20114;-74
2021/03/24 11:49:53;;;;;;;40.50;23.05;;;17.10;99.90;;;;;;4957440;28;20152;-73
2021/03/24 11:52:31;;;;;;;37.13;22.02;;;17.10;99.90;;;;;;4957670;28;20671;-73
2021/03/24 11:55:12;;;;;;;40.83;23.35;;;17.00;99.90;;;;;;4959057;28;20451;-73
2021/03/24 11:57:48;;;;;;;39.13;23.15;;;17.20;99.90;;;;;;4956224;28;20448;-73
2021/03/24 12:00:41;;;;;;;34.65;20.83;;;17.20;99.90;;;;;;4941438;28;20038;-73
2021/03/24 12:03:52;;;;;;;40.17;20.50;;;17.30;99.90;;;;;;4966561;28;20090;-74
2021/03/24 12:06:40;;;;;;;36.72;22.30;;;17.50;99.90;;;;;;4957682;28;20472;-74
2021/03/24 12:09:18;;;;;;;41.75;23.42;;;17.50;99.90;;;;;;4956048;28;20476;-73
2021/03/24 12:11:44;;;;;;;40.50;22.95;;;17.40;99.90;;;;;;4963859;28;20031;-74
2021/03/24 12:14:18;;;;;;;40.95;22.38;;;17.40;99.90;;;;;;4969953;28;20039;-73
2021/03/24 12:16:52;;;;;;;38.63;22.25;;;17.50;99.90;;;;;;4952030;28;20057;-74
2021/03/24 12:19:26;;;;;;;33.58;19.65;;;17.40;99.90;;;;;;4966940;28;20487;-74
2021/03/24 12:21:58;;;;;;;37.17;20.05;;;17.60;99.90;;;;;;4960478;28;20158;-72
2021/03/24 12:24:27;;;;;;;34.97;21.63;;;17.60;99.90;;;;;;4940930;28;20546;-73
2021/03/24 12:27:04;;;;;;;37.30;20.75;;;17.50;99.90;;;;;;4964383;28;20158;-74
2021/03/24 12:29:29;;;;;;;35.95;21.10;;;17.40;99.90;;;;;;4966211;28;20057;-73
2021/03/24 12:32:23;;;;;;;37.13;21.65;;;17.50;99.90;;;;;;4964155;28;20539;-73
2021/03/24 12:34:49;;;;;;;39.05;23.00;;;17.40;99.90;;;;;;4943015;28;20073;-73
2021/03/24 12:37:32;;;;;;;46.10;23.58;;;17.50;99.90;;;;;;4961062;28;20140;-72
2021/03/24 12:40:08;;;;;;;39.33;22.58;;;17.50;99.90;;;;;;4965790;28;20606;-73
2021/03/24 12:42:34;;;;;;;39.47;22.33;;;17.60;99.90;;;;;;4953599;28;20101;-73
2021/03/24 12:45:02;;;;;;;40.72;22.77;;;17.60;99.90;;;;;;4953993;28;20138;-72
2021/03/24 12:47:34;;;;;;;39.15;22.85;;;17.60;99.90;;;;;;4958674;28;20099;-72
2021/03/24 12:50:11;;;;;;;36.58;21.95;;;17.50;99.90;;;;;;4967009;28;20498;-73
2021/03/24 12:52:42;;;;;;;44.72;24.42;;;17.50;99.90;;;;;;4968420;28;20116;-73
2021/03/24 12:55:10;;;;;;;36.67;22.38;;;17.70;99.90;;;;;;4964927;28;20050;-73
2021/03/24 12:57:54;;;;;;;43.05;23.98;;;17.70;99.90;;;;;;4959503;28;20071;-72
2021/03/24 13:00:40;;;;;;;42.75;24.08;;;17.70;99.90;;;;;;4959150;28;20035;-73
2021/03/24 13:03:42;;;;;;;41.10;23.83;;;17.50;99.90;;;;;;4964951;28;20472;-72
2021/03/24 13:06:22;;;;;;;39.42;22.92;;;17.50;99.90;;;;;;4958840;28;20028;-72
2021/03/24 13:09:17;;;;;;;46.78;24.92;;;17.60;99.90;;;;;;4966833;28;20034;-72
2021/03/24 13:11:57;;;;;;;42.55;24.08;;;17.70;99.90;;;;;;4953688;28;20476;-71
2021/03/24 13:14:50;;;;;;;44.22;25.95;;;17.70;99.90;;;;;;4960735;28;20071;-73
2021/03/24 13:17:19;;;;;;;50.15;25.60;;;17.60;99.90;;;;;;4956136;28;20063;-73
2021/03/24 13:19:57;;;;;;;44.70;25.08;;;17.70;99.90;;;;;;4960478;28;20035;-72
2021/03/24 13:22:23;;;;;;;38.92;23.52;;;17.60;99.90;;;;;;4957677;28;20030;-73
2021/03/24 13:25:20;;;;;;;37.95;23.20;;;17.60;99.90;;;;;;4956241;28;20564;-73
2021/03/24 13:27:53;;;;;;;41.42;22.02;;;17.60;99.90;;;;;;4955743;28;20073;-73